createdAt,value
2017-07-22T00:00:19.916Z,5.33
2017-07-22T00:02:48.103Z,5.77
2017-07-22T00:05:15.534Z,5.63
2017-07-22T00:07:42.956Z,5.57
2017-07-22T00:10:10.382Z,6.40
2017-07-22T00:12:37.804Z,5.67
2017-07-22T00:15:06.012Z,6.03
2017-07-22T00:17:33.445Z,5.60
2017-07-22T00:20:01.636Z,5.50
2017-07-22T00:22:29.071Z,5.70
2017-07-22T00:24:57.263Z,6.10
2017-07-22T00:27:24.685Z,6.20
2017-07-22T00:29:52.107Z,5.70
2017-07-22T00:32:19.546Z,6.07
2017-07-22T00:34:53.507Z,6.03
2017-07-22T00:37:20.912Z,5.70
2017-07-22T00:39:48.343Z,6.20
2017-07-22T00:42:15.767Z,5.87
2017-07-22T00:44:43.180Z,5.77
2017-07-22T00:47:10.624Z,5.80
2017-07-22T00:49:38.057Z,6.07
2017-07-22T00:52:06.242Z,5.70
2017-07-22T00:54:33.665Z,5.93
2017-07-22T00:57:01.097Z,5.80
2017-07-22T00:59:28.533Z,6.10
2017-07-22T01:01:56.045Z,6.00
2017-07-22T01:04:23.449Z,7.03
2017-07-22T01:06:50.864Z,5.90
2017-07-22T01:09:19.066Z,5.70
2017-07-22T01:11:46.489Z,5.43
2017-07-22T01:14:14.687Z,6.30
2017-07-22T01:16:42.133Z,6.30
2017-07-22T01:19:09.541Z,5.93
2017-07-22T01:21:36.960Z,6.03
2017-07-22T01:24:04.416Z,6.20
2017-07-22T01:26:31.835Z,6.27
2017-07-22T01:29:00.029Z,6.07
2017-07-22T01:31:27.525Z,6.17
2017-07-22T01:33:54.947Z,6.63
2017-07-22T01:36:22.392Z,5.77
2017-07-22T01:38:50.580Z,6.50
2017-07-22T01:41:17.997Z,6.03
2017-07-22T01:43:45.425Z,6.17
2017-07-22T01:46:12.846Z,6.43
2017-07-22T01:48:40.270Z,5.60
2017-07-22T01:51:08.464Z,5.80
2017-07-22T01:53:36.101Z,6.70
2017-07-22T01:56:04.287Z,6.20
2017-07-22T01:58:31.721Z,6.33
2017-07-22T02:00:59.143Z,6.50
2017-07-22T02:03:26.583Z,6.43
2017-07-22T02:05:53.996Z,5.63
2017-07-22T02:08:21.444Z,5.47
2017-07-22T02:10:48.860Z,5.93
2017-07-22T02:13:16.291Z,5.60
2017-07-22T02:15:43.736Z,6.27
2017-07-22T02:18:11.160Z,5.80
2017-07-22T02:20:38.577Z,6.10
2017-07-22T02:23:05.998Z,5.50
2017-07-22T02:25:33.422Z,5.97
2017-07-22T02:28:00.847Z,6.30
2017-07-22T02:30:28.262Z,6.10
2017-07-22T02:32:56.453Z,5.80
2017-07-22T02:35:23.876Z,6.30
2017-07-22T02:37:51.304Z,6.00
2017-07-22T02:40:18.758Z,5.70
2017-07-22T02:42:46.176Z,6.23
2017-07-22T02:45:13.600Z,6.07
2017-07-22T02:47:41.025Z,6.00
2017-07-22T02:50:08.462Z,6.13
2017-07-22T02:52:35.893Z,6.20
2017-07-22T02:55:04.081Z,6.70
2017-07-22T02:57:31.506Z,6.70
2017-07-22T02:59:59.697Z,6.17
2017-07-22T03:02:27.116Z,6.40
2017-07-22T03:04:54.549Z,6.37
2017-07-22T03:07:21.980Z,6.37
2017-07-22T03:09:49.410Z,5.87
2017-07-22T03:12:16.834Z,6.27
2017-07-22T03:14:44.254Z,6.03
2017-07-22T03:17:11.703Z,6.73
2017-07-22T03:19:39.141Z,5.87
2017-07-22T03:22:07.363Z,6.23
2017-07-22T03:24:34.800Z,6.13
2017-07-22T03:27:02.221Z,9.23
2017-07-22T03:29:30.410Z,6.60
2017-07-22T03:31:57.840Z,7.00
2017-07-22T03:34:25.261Z,7.10
2017-07-22T03:36:52.720Z,7.50
2017-07-22T03:39:20.145Z,6.93
2017-07-22T03:41:47.564Z,7.00
2017-07-22T03:44:15.785Z,7.27
2017-07-22T03:46:43.212Z,7.03
2017-07-22T03:49:10.633Z,7.00
2017-07-22T03:51:38.058Z,7.83
2017-07-22T03:54:05.494Z,7.10
2017-07-22T03:56:32.913Z,6.87
2017-07-22T03:59:01.231Z,7.00
2017-07-22T04:01:28.634Z,7.10
2017-07-22T04:03:56.066Z,6.90
2017-07-22T04:06:23.522Z,6.93
2017-07-22T04:08:50.944Z,6.90
2017-07-22T04:11:18.369Z,6.83
2017-07-22T04:13:46.560Z,6.47
2017-07-22T04:16:13.997Z,7.37
2017-07-22T04:18:42.181Z,7.17
2017-07-22T04:21:09.622Z,6.70
2017-07-22T04:23:37.813Z,7.07
2017-07-22T04:26:05.238Z,6.67
2017-07-22T04:28:32.656Z,6.53
2017-07-22T04:31:00.080Z,6.57
2017-07-22T04:33:27.509Z,7.00
2017-07-22T04:35:54.928Z,6.80
2017-07-22T04:38:22.373Z,6.40
2017-07-22T04:40:49.803Z,6.97
2017-07-22T04:43:17.237Z,6.67
2017-07-22T04:45:44.668Z,7.07
2017-07-22T04:48:12.095Z,6.73
2017-07-22T04:50:39.521Z,6.77
2017-07-22T04:53:07.721Z,6.60
2017-07-22T04:55:35.147Z,6.50
2017-07-22T04:58:03.342Z,6.63
2017-07-22T05:00:30.765Z,6.83
2017-07-22T05:02:58.188Z,6.13
2017-07-22T05:05:25.613Z,6.57
2017-07-22T05:07:53.033Z,6.50
2017-07-22T05:10:21.252Z,6.70
2017-07-22T05:12:48.664Z,5.67
2017-07-22T05:15:16.856Z,6.77
2017-07-22T05:17:44.279Z,7.20
2017-07-22T05:20:11.700Z,6.80
2017-07-22T05:22:39.159Z,6.90
2017-07-22T05:25:06.599Z,7.23
2017-07-22T05:27:34.004Z,6.30
2017-07-22T05:30:02.197Z,6.83
2017-07-22T05:32:30.388Z,6.80
2017-07-22T05:34:57.808Z,6.40
2017-07-22T05:37:26.016Z,6.30
2017-07-22T05:39:53.437Z,7.00
2017-07-22T05:42:20.852Z,6.20
2017-07-22T05:44:48.324Z,6.10
2017-07-22T05:47:15.769Z,7.17
2017-07-22T05:49:43.168Z,6.67
2017-07-22T05:52:11.375Z,7.47
2017-07-22T05:54:38.797Z,6.30
2017-07-22T05:57:06.988Z,6.70
2017-07-22T05:59:34.403Z,6.60
2017-07-22T06:02:01.829Z,6.03
2017-07-22T06:04:29.257Z,6.60
2017-07-22T06:06:56.746Z,6.47
2017-07-22T06:09:24.190Z,6.70
2017-07-22T06:11:51.624Z,7.00
2017-07-22T06:14:19.037Z,6.87
2017-07-22T06:16:46.457Z,6.80
2017-07-22T06:19:13.877Z,7.07
2017-07-22T06:21:42.052Z,6.10
2017-07-22T06:24:10.245Z,7.20
2017-07-22T06:26:37.669Z,7.37
2017-07-22T06:29:05.093Z,6.70
2017-07-22T06:31:32.515Z,6.57
2017-07-22T06:33:59.932Z,6.93
2017-07-22T06:36:28.128Z,6.60
2017-07-22T06:38:55.548Z,6.70
2017-07-22T06:41:22.978Z,6.70
2017-07-22T06:43:50.397Z,7.67
2017-07-22T06:46:17.825Z,6.80
2017-07-22T06:48:45.237Z,7.30
2017-07-22T06:51:12.663Z,8.40
2017-07-22T06:53:40.084Z,8.03
2017-07-22T06:56:07.511Z,6.67
2017-07-22T06:58:34.929Z,7.70
2017-07-22T07:01:02.425Z,7.00
2017-07-22T07:03:29.894Z,6.90
2017-07-22T07:05:58.081Z,6.37
2017-07-22T07:08:25.513Z,6.27
2017-07-22T07:10:53.708Z,6.23
2017-07-22T07:13:21.134Z,6.00
2017-07-22T07:15:48.552Z,6.67
2017-07-22T07:18:15.996Z,5.90
2017-07-22T07:20:43.409Z,6.80
2017-07-22T07:23:11.625Z,5.30
2017-07-22T07:25:39.041Z,6.50
2017-07-22T07:28:07.225Z,5.93
2017-07-22T07:30:34.661Z,6.17
2017-07-22T07:33:02.078Z,6.90
2017-07-22T07:35:29.504Z,6.23
2017-07-22T07:37:56.937Z,6.50
2017-07-22T07:40:25.126Z,7.77
2017-07-22T07:42:52.552Z,7.10
2017-07-22T07:45:20.069Z,6.03
2017-07-22T07:47:47.485Z,6.73
2017-07-22T07:50:14.917Z,7.17
2017-07-22T07:52:42.328Z,7.07
2017-07-22T07:55:09.759Z,6.77
2017-07-22T07:57:37.944Z,8.10
2017-07-22T08:00:06.141Z,8.40
2017-07-22T08:02:33.573Z,7.40
2017-07-22T08:05:01.762Z,7.50
2017-07-22T08:07:29.178Z,7.70
2017-07-22T08:09:56.601Z,7.90
2017-07-22T08:12:24.029Z,7.80
2017-07-22T08:14:51.463Z,7.60
2017-07-22T08:17:19.656Z,7.87
2017-07-22T08:19:47.082Z,7.83
2017-07-22T08:22:14.505Z,7.93
2017-07-22T08:24:41.936Z,7.17
2017-07-22T08:27:09.373Z,7.60
2017-07-22T08:29:37.576Z,7.60
2017-07-22T08:32:05.000Z,7.73
2017-07-22T08:34:32.426Z,8.47
2017-07-22T08:37:00.628Z,8.10
2017-07-22T08:39:28.499Z,7.90
2017-07-22T08:41:56.681Z,8.53
2017-07-22T08:44:24.111Z,8.50
2017-07-22T08:46:51.532Z,8.80
2017-07-22T08:49:18.957Z,8.80
2017-07-22T08:51:46.376Z,8.93
2017-07-22T08:54:13.821Z,8.47
2017-07-22T08:56:41.229Z,8.60
2017-07-22T08:59:08.688Z,8.97
2017-07-22T09:01:36.108Z,8.40
2017-07-22T09:04:04.318Z,8.80
2017-07-22T09:06:31.751Z,9.00
2017-07-22T09:09:00.065Z,9.37
2017-07-22T09:11:27.486Z,8.63
2017-07-22T09:13:55.665Z,9.03
2017-07-22T09:16:23.155Z,9.70
2017-07-22T09:18:50.740Z,9.20
2017-07-22T09:21:18.249Z,9.50
2017-07-22T09:23:46.421Z,10.87
2017-07-22T09:26:13.869Z,10.67
2017-07-22T09:28:41.474Z,15.70
2017-07-22T09:31:08.968Z,11.07
2017-07-22T09:33:36.533Z,11.17
2017-07-22T09:36:03.953Z,9.60
2017-07-22T09:38:31.382Z,9.30
2017-07-22T09:40:58.830Z,8.50
2017-07-22T09:43:26.912Z,8.10
2017-07-22T09:45:54.361Z,7.70
2017-07-22T09:48:21.799Z,7.57
2017-07-22T09:50:49.977Z,7.83
2017-07-22T09:53:17.391Z,8.50
2017-07-22T09:55:44.813Z,8.47
2017-07-22T09:58:12.245Z,9.33
2017-07-22T10:00:39.681Z,8.93
2017-07-22T10:03:07.868Z,9.70
2017-07-22T10:05:35.301Z,8.70
2017-07-22T10:08:03.485Z,10.07
2017-07-22T10:10:30.917Z,10.07
2017-07-22T10:12:58.343Z,9.50
2017-07-22T10:15:25.777Z,9.80
2017-07-22T10:17:53.271Z,9.27
2017-07-22T10:20:20.695Z,10.40
2017-07-22T10:22:48.116Z,10.60
2017-07-22T10:25:16.300Z,9.17
2017-07-22T10:27:43.724Z,9.90
2017-07-22T10:30:11.147Z,9.70
2017-07-22T10:32:38.598Z,10.13
2017-07-22T10:35:06.008Z,10.33
2017-07-22T10:37:34.218Z,10.20
2017-07-22T10:40:01.661Z,10.20
2017-07-22T10:42:29.141Z,10.73
2017-07-22T10:44:56.595Z,10.67
2017-07-22T10:47:24.031Z,10.90
2017-07-22T10:49:51.458Z,10.10
2017-07-22T10:52:19.651Z,9.70
2017-07-22T10:54:47.076Z,10.37
2017-07-22T10:57:14.530Z,9.73
2017-07-22T10:59:41.963Z,10.20
2017-07-22T11:02:09.406Z,10.50
2017-07-22T11:04:36.823Z,10.50
2017-07-22T11:07:04.252Z,11.17
2017-07-22T11:09:31.680Z,9.90
2017-07-22T11:11:59.115Z,11.43
2017-07-22T11:14:26.584Z,10.73
2017-07-22T11:16:53.997Z,10.97
2017-07-22T11:19:21.432Z,11.17
2017-07-22T11:21:49.627Z,10.93
2017-07-22T11:24:17.817Z,11.13
2017-07-22T11:26:45.245Z,11.43
2017-07-22T11:29:13.462Z,10.53
2017-07-22T11:31:40.878Z,10.63
2017-07-22T11:34:09.077Z,10.30
2017-07-22T11:36:36.506Z,12.27
2017-07-22T11:39:04.697Z,11.10
2017-07-22T11:41:32.126Z,10.70
2017-07-22T11:44:00.348Z,10.53
2017-07-22T11:46:27.768Z,10.83
2017-07-22T11:48:55.969Z,10.57
2017-07-22T11:51:23.391Z,9.50
2017-07-22T11:53:51.591Z,11.47
2017-07-22T11:56:19.008Z,10.60
2017-07-22T11:58:46.452Z,10.80
2017-07-22T12:01:13.870Z,10.73
2017-07-22T12:03:41.295Z,10.23
2017-07-22T12:06:09.526Z,9.67
2017-07-22T12:08:36.953Z,8.63
2017-07-22T12:11:04.368Z,8.30
2017-07-22T12:13:32.564Z,8.10
2017-07-22T12:16:00.750Z,8.60
2017-07-22T12:18:28.182Z,9.33
2017-07-22T12:20:56.378Z,9.47
2017-07-22T12:23:23.793Z,9.90
2017-07-22T12:25:51.994Z,10.03
2017-07-22T12:28:19.425Z,9.70
2017-07-22T12:30:46.851Z,9.63
2017-07-22T12:33:14.330Z,9.70
2017-07-22T12:35:41.770Z,9.10
2017-07-22T12:38:09.215Z,9.00
2017-07-22T12:40:36.650Z,11.00
2017-07-22T12:43:04.866Z,10.23
2017-07-22T12:45:32.296Z,9.33
2017-07-22T12:47:59.728Z,10.30
2017-07-22T12:50:27.933Z,9.70
2017-07-22T12:52:55.416Z,12.50
2017-07-22T12:55:22.874Z,10.67
2017-07-22T12:57:50.329Z,10.50
2017-07-22T13:00:17.761Z,11.47
2017-07-22T13:02:45.193Z,10.90
2017-07-22T13:05:12.619Z,11.03
2017-07-22T13:07:40.046Z,10.73
2017-07-22T13:10:07.476Z,9.90
2017-07-22T13:12:34.914Z,9.50
2017-07-22T13:15:03.130Z,9.10
2017-07-22T13:17:30.594Z,8.97
2017-07-22T13:19:58.013Z,8.80
2017-07-22T13:22:25.441Z,10.37
2017-07-22T13:24:52.888Z,8.10
2017-07-22T13:27:20.409Z,7.50
2017-07-22T13:29:47.950Z,7.00
2017-07-22T13:32:15.369Z,7.90
2017-07-22T13:34:43.594Z,7.40
2017-07-22T13:37:11.000Z,7.27
2017-07-22T13:39:38.426Z,7.40
2017-07-22T13:42:05.971Z,8.10
2017-07-22T13:44:33.397Z,9.20
2017-07-22T13:47:00.821Z,8.13
2017-07-22T13:49:28.256Z,7.13
2017-07-22T13:51:56.450Z,8.90
2017-07-22T13:54:23.925Z,8.23
2017-07-22T13:56:51.328Z,7.90
2017-07-22T13:59:18.847Z,8.37
2017-07-22T14:01:46.300Z,7.10
2017-07-22T14:04:13.727Z,6.70
2017-07-22T14:06:41.156Z,6.97
2017-07-22T14:09:08.600Z,7.33
2017-07-22T14:11:36.057Z,7.27
2017-07-22T14:14:03.492Z,7.30
2017-07-22T14:16:30.942Z,6.50
2017-07-22T14:18:58.371Z,6.20
2017-07-22T14:21:25.787Z,6.60
2017-07-22T14:23:53.233Z,7.17
2017-07-22T14:26:20.641Z,6.30
2017-07-22T14:28:48.078Z,5.47
2017-07-22T14:31:16.291Z,6.57
2017-07-22T14:33:43.704Z,6.00
2017-07-22T14:36:11.124Z,5.57
2017-07-22T14:38:38.542Z,5.50
2017-07-22T14:41:05.976Z,6.10
2017-07-22T14:43:33.396Z,6.97
2017-07-22T14:46:00.913Z,7.13
2017-07-22T14:48:28.328Z,7.93
2017-07-22T14:50:56.520Z,6.57
2017-07-22T14:53:23.945Z,6.67
2017-07-22T14:55:51.388Z,6.33
2017-07-22T14:58:18.810Z,5.70
2017-07-22T15:00:46.247Z,6.00
2017-07-22T15:03:13.677Z,5.83
2017-07-22T15:05:41.905Z,5.80
2017-07-22T15:08:09.361Z,6.30
2017-07-22T15:10:36.790Z,6.20
2017-07-22T15:13:04.200Z,6.13
2017-07-22T15:15:31.744Z,6.30
2017-07-22T15:17:59.182Z,5.90
2017-07-22T15:20:26.597Z,5.43
2017-07-22T15:22:54.792Z,6.77
2017-07-22T15:25:22.206Z,6.47
2017-07-22T15:27:49.623Z,5.87
2017-07-22T15:30:17.079Z,5.43
2017-07-22T15:32:44.530Z,6.20
2017-07-22T15:35:11.944Z,5.80
2017-07-22T15:37:40.137Z,6.60
2017-07-22T15:40:07.572Z,5.90
2017-07-22T15:42:35.756Z,6.07
2017-07-22T15:45:03.170Z,6.00
2017-07-22T15:47:30.621Z,6.43
2017-07-22T15:49:58.050Z,6.07
2017-07-22T15:52:25.447Z,5.70
2017-07-22T15:54:52.876Z,5.57
2017-07-22T15:57:20.325Z,6.03
2017-07-22T15:59:47.731Z,5.57
2017-07-22T16:02:15.151Z,5.90
2017-07-22T16:04:42.627Z,6.20
2017-07-22T16:07:10.046Z,6.10
2017-07-22T16:09:37.467Z,5.93
2017-07-22T16:12:05.675Z,6.50
2017-07-22T16:14:33.088Z,5.50
2017-07-22T16:17:00.527Z,5.73
2017-07-22T16:19:27.953Z,5.77
2017-07-22T16:21:55.378Z,6.50
2017-07-22T16:24:22.910Z,8.70
2017-07-22T16:26:51.099Z,6.50
2017-07-22T16:29:18.520Z,6.60
2017-07-22T16:31:46.044Z,6.97
2017-07-22T16:34:13.492Z,8.03
2017-07-22T16:36:41.009Z,6.57
2017-07-22T16:39:08.525Z,7.27
2017-07-22T16:41:35.931Z,7.50
2017-07-22T16:44:04.142Z,6.73
2017-07-22T16:46:31.543Z,8.07
2017-07-22T16:48:59.732Z,7.10
2017-07-22T16:51:27.948Z,8.13
2017-07-22T16:53:55.352Z,8.10
2017-07-22T16:56:23.543Z,7.57
2017-07-22T16:58:50.964Z,8.10
2017-07-22T17:01:18.386Z,8.70
2017-07-22T17:03:45.814Z,8.00
2017-07-22T17:06:13.237Z,7.70
2017-07-22T17:08:40.683Z,7.87
2017-07-22T17:11:08.109Z,9.40
2017-07-22T17:13:35.538Z,8.70
2017-07-22T17:16:02.986Z,9.87
2017-07-22T17:18:31.178Z,10.40
2017-07-22T17:20:58.614Z,10.30
2017-07-22T17:23:26.837Z,9.53
2017-07-22T17:25:54.279Z,9.70
2017-07-22T17:28:21.701Z,9.53
2017-07-22T17:30:49.140Z,9.70
2017-07-22T17:33:16.563Z,10.37
2017-07-22T17:35:43.980Z,10.57
2017-07-22T17:38:11.434Z,10.20
2017-07-22T17:40:38.852Z,9.60
2017-07-22T17:43:06.284Z,9.27
2017-07-22T17:45:33.721Z,9.80
2017-07-22T17:48:01.148Z,11.90
2017-07-22T17:50:28.580Z,10.10
2017-07-22T17:52:56.010Z,10.70
2017-07-22T17:55:23.477Z,10.77
2017-07-22T17:57:51.004Z,11.77
2017-07-22T18:00:18.453Z,11.20
2017-07-22T18:02:46.025Z,11.17
2017-07-22T18:05:13.449Z,11.17
2017-07-22T18:07:40.900Z,11.43
2017-07-22T18:10:08.361Z,11.37
2017-07-22T18:12:35.792Z,12.17
2017-07-22T18:15:03.216Z,12.47
2017-07-22T18:17:31.412Z,11.90
2017-07-22T18:19:58.844Z,12.53
2017-07-22T18:22:26.269Z,12.57
2017-07-22T18:24:53.708Z,12.10
2017-07-22T18:27:21.138Z,12.53
2017-07-22T18:29:48.566Z,12.13
2017-07-22T18:32:15.995Z,12.37
2017-07-22T18:34:43.453Z,12.00
2017-07-22T18:37:10.903Z,12.63
2017-07-22T18:39:38.348Z,12.87
2017-07-22T18:42:05.801Z,12.43
2017-07-22T18:44:33.243Z,13.50
2017-07-22T18:47:00.661Z,12.90
2017-07-22T18:49:28.858Z,13.27
2017-07-22T18:51:56.280Z,13.90
2017-07-22T18:54:23.726Z,14.77
2017-07-22T18:56:51.162Z,14.40
2017-07-22T18:59:18.598Z,14.67
2017-07-22T19:01:46.026Z,15.40
2017-07-22T19:04:13.450Z,15.80
2017-07-22T19:06:40.885Z,15.50
2017-07-22T19:09:08.357Z,15.67
2017-07-22T19:11:35.787Z,15.10
2017-07-22T19:14:03.222Z,17.00
2017-07-22T19:16:30.669Z,15.80
2017-07-22T19:18:58.101Z,17.00
2017-07-22T19:21:26.294Z,16.77
2017-07-22T19:23:53.744Z,18.33
2017-07-22T19:26:21.942Z,17.70
2017-07-22T19:28:49.370Z,17.57
2017-07-22T19:31:16.820Z,17.40
2017-07-22T19:33:44.254Z,19.40
2017-07-22T19:36:11.684Z,19.47
2017-07-22T19:38:39.132Z,20.00
2017-07-22T19:41:06.854Z,18.37
2017-07-22T19:43:35.082Z,18.97
2017-07-22T19:46:02.513Z,20.53
2017-07-22T19:48:29.940Z,19.53
2017-07-22T19:50:58.156Z,19.63
2017-07-22T19:53:26.019Z,20.50
2017-07-22T19:55:53.443Z,20.13
2017-07-22T19:58:20.884Z,20.57
2017-07-22T20:00:49.090Z,20.53
2017-07-22T20:03:16.544Z,20.30
2017-07-22T20:05:43.965Z,21.60
2017-07-22T20:08:12.165Z,21.10
2017-07-22T20:10:39.605Z,20.83
2017-07-22T20:13:07.827Z,22.00
2017-07-22T20:15:35.290Z,20.20
2017-07-22T20:18:02.763Z,21.20
2017-07-22T20:20:30.197Z,21.80
2017-07-22T20:22:57.621Z,21.37
2017-07-22T20:25:25.501Z,21.37
2017-07-22T20:27:53.040Z,21.67
2017-07-22T20:30:20.477Z,24.10
2017-07-22T20:32:48.727Z,23.17
2017-07-22T20:35:16.175Z,20.33
2017-07-22T20:37:43.613Z,22.30
2017-07-22T20:40:11.042Z,20.80
2017-07-22T20:42:38.477Z,21.67
2017-07-22T20:45:06.674Z,21.97
2017-07-22T20:47:34.109Z,21.40
2017-07-22T20:50:02.313Z,22.53
2017-07-22T20:52:29.750Z,22.13
2017-07-22T20:54:57.940Z,23.07
2017-07-22T20:57:25.378Z,24.40
2017-07-22T20:59:53.573Z,24.30
2017-07-22T21:02:21.219Z,23.30
2017-07-22T21:04:48.702Z,22.77
2017-07-22T21:07:16.493Z,22.63
2017-07-22T21:09:44.215Z,23.67
2017-07-22T21:12:11.644Z,22.50
2017-07-22T21:14:40.100Z,23.20
2017-07-22T21:17:07.769Z,22.43
2017-07-22T21:19:35.406Z,21.90
2017-07-22T21:22:03.369Z,21.73
2017-07-22T21:24:33.201Z,23.10
2017-07-22T21:27:00.900Z,22.67
2017-07-22T21:29:28.637Z,21.80
2017-07-22T21:31:57.755Z,23.40
2017-07-22T21:34:25.511Z,21.80
2017-07-22T21:36:53.282Z,23.23
2017-07-22T21:39:21.693Z,21.50
2017-07-22T21:41:49.124Z,23.27
2017-07-22T21:44:16.595Z,22.43
2017-07-22T21:46:44.033Z,21.90
2017-07-22T21:49:11.481Z,22.43
2017-07-22T21:51:38.899Z,22.07
2017-07-22T21:54:06.328Z,22.00
2017-07-22T21:56:33.784Z,21.50
2017-07-22T21:59:01.993Z,21.90
2017-07-22T22:01:29.427Z,20.50
2017-07-22T22:03:57.636Z,20.47
2017-07-22T22:06:25.193Z,18.83
2017-07-22T22:08:52.714Z,20.63
2017-07-22T22:11:20.192Z,19.43
2017-07-22T22:13:47.640Z,20.30
2017-07-22T22:16:15.074Z,19.97
2017-07-22T22:18:42.501Z,18.93
2017-07-22T22:21:09.949Z,18.60
2017-07-22T22:23:37.459Z,18.83
2017-07-22T22:26:05.657Z,19.90
2017-07-22T22:28:33.134Z,21.30
2017-07-22T22:31:00.545Z,20.13
2017-07-22T22:33:27.987Z,19.90
2017-07-22T22:35:56.226Z,20.13
2017-07-22T22:38:23.641Z,20.57
2017-07-22T22:40:51.087Z,20.70
2017-07-22T22:43:18.576Z,19.90
2017-07-22T22:45:46.048Z,20.23
2017-07-22T22:48:13.481Z,20.17
2017-07-22T22:50:40.943Z,20.43
2017-07-22T22:53:08.367Z,19.93
2017-07-22T22:55:36.553Z,20.53
2017-07-22T22:58:03.988Z,20.70
2017-07-22T23:00:32.196Z,20.00
2017-07-22T23:02:59.617Z,19.73
2017-07-22T23:05:27.820Z,22.60
2017-07-22T23:07:55.342Z,20.83
2017-07-22T23:10:23.549Z,19.80
2017-07-22T23:12:50.976Z,20.37
2017-07-22T23:15:19.185Z,20.00
2017-07-22T23:17:46.607Z,20.50
2017-07-22T23:20:14.805Z,20.93
2017-07-22T23:22:42.246Z,20.20
2017-07-22T23:25:10.461Z,20.93
2017-07-22T23:27:38.683Z,20.73
2017-07-22T23:30:06.882Z,21.30
2017-07-22T23:32:34.318Z,22.47
2017-07-22T23:35:02.531Z,20.30
2017-07-22T23:37:29.950Z,21.10
2017-07-22T23:40:19.485Z,21.23
2017-07-22T23:42:46.904Z,21.20
2017-07-22T23:45:14.332Z,20.60
2017-07-22T23:47:41.753Z,22.00
2017-07-22T23:50:09.178Z,22.27
2017-07-22T23:52:36.616Z,21.77
2017-07-22T23:55:04.058Z,22.27
2017-07-22T23:57:32.265Z,21.50
2017-07-22T23:59:59.690Z,23.03
